createdAt,value
2018-12-08T00:01:33.220Z,41.53
2018-12-08T00:04:01.805Z,41.40
2018-12-08T00:06:30.432Z,40.63
2018-12-08T00:08:59.005Z,42.87
2018-12-08T00:11:27.587Z,38.90
2018-12-08T00:13:56.180Z,43.33
2018-12-08T00:16:24.925Z,40.03
2018-12-08T00:18:53.516Z,42.13
2018-12-08T00:21:22.144Z,42.03
2018-12-08T00:23:50.701Z,36.43
2018-12-08T00:26:19.312Z,40.87
2018-12-08T00:28:47.846Z,38.90
2018-12-08T00:31:27.680Z,37.20
2018-12-08T00:33:56.257Z,37.33
2018-12-08T00:36:24.848Z,37.40
2018-12-08T00:38:53.448Z,37.57
2018-12-08T00:41:22.044Z,38.80
2018-12-08T00:43:50.621Z,37.67
2018-12-08T00:46:19.221Z,39.40
2018-12-08T00:48:47.797Z,37.17
2018-12-08T00:51:16.724Z,39.77
2018-12-08T00:53:45.320Z,39.20
2018-12-08T00:56:13.888Z,38.00
2018-12-08T00:58:42.412Z,37.43
2018-12-08T01:01:11.067Z,36.10
2018-12-08T01:03:39.767Z,36.63
2018-12-08T01:06:08.345Z,39.63
2018-12-08T01:08:36.957Z,40.23
2018-12-08T01:11:05.545Z,38.20
2018-12-08T01:13:34.141Z,39.50
2018-12-08T01:16:03.601Z,36.27
2018-12-08T01:18:32.165Z,37.77
2018-12-08T01:21:00.751Z,38.73
2018-12-08T01:23:29.328Z,41.50
2018-12-08T01:25:57.904Z,38.40
2018-12-08T01:28:26.493Z,37.10
2018-12-08T01:30:55.069Z,40.03
2018-12-08T01:33:23.648Z,35.60
2018-12-08T01:35:52.264Z,36.97
2018-12-08T01:38:21.161Z,39.00
2018-12-08T01:40:49.724Z,36.33
2018-12-08T01:43:18.330Z,37.53
2018-12-08T01:45:46.881Z,36.77
2018-12-08T01:48:15.497Z,40.80
2018-12-08T01:50:44.069Z,36.57
2018-12-08T01:53:12.673Z,40.07
2018-12-08T01:55:41.257Z,40.87
2018-12-08T01:58:09.824Z,36.63
2018-12-08T02:00:38.436Z,38.30
2018-12-08T02:03:07.012Z,36.77
2018-12-08T02:05:35.609Z,37.27
2018-12-08T02:08:04.196Z,38.27
2018-12-08T02:10:32.896Z,40.20
2018-12-08T02:13:01.464Z,39.30
2018-12-08T02:15:30.065Z,36.07
2018-12-08T02:17:58.644Z,38.97
2018-12-08T02:20:27.228Z,35.17
2018-12-08T02:22:55.816Z,36.40
2018-12-08T02:25:24.416Z,38.43
2018-12-08T02:27:52.997Z,35.60
2018-12-08T02:30:21.562Z,34.20
2018-12-08T02:32:50.312Z,34.53
2018-12-08T02:35:18.880Z,34.97
2018-12-08T02:37:47.457Z,34.37
2018-12-08T02:40:16.033Z,35.97
2018-12-08T02:42:44.632Z,33.40
2018-12-08T02:45:13.362Z,34.97
2018-12-08T02:47:41.948Z,36.70
2018-12-08T02:50:10.542Z,35.53
2018-12-08T02:52:39.107Z,34.10
2018-12-08T02:55:07.748Z,33.43
2018-12-08T02:57:36.337Z,33.53
2018-12-08T03:00:06.101Z,31.83
2018-12-08T03:02:35.039Z,31.80
2018-12-08T03:05:04.287Z,31.60
2018-12-08T03:07:32.861Z,32.50
2018-12-08T03:10:01.452Z,31.40
2018-12-08T03:12:30.012Z,29.93
2018-12-08T03:14:58.576Z,34.63
2018-12-08T03:17:27.156Z,33.40
2018-12-08T03:19:55.736Z,33.53
2018-12-08T03:22:24.341Z,32.70
2018-12-08T03:24:52.945Z,34.77
2018-12-08T03:27:21.545Z,33.50
2018-12-08T03:29:50.135Z,33.00
2018-12-08T03:32:18.718Z,35.47
2018-12-08T03:34:47.315Z,34.73
2018-12-08T03:37:15.917Z,34.33
2018-12-08T03:39:44.624Z,34.17
2018-12-08T03:42:13.181Z,35.20
2018-12-08T03:44:42.155Z,33.80
2018-12-08T03:47:10.760Z,34.73
2018-12-08T03:49:39.347Z,32.63
2018-12-08T03:52:08.052Z,33.90
2018-12-08T03:54:36.609Z,33.80
2018-12-08T03:57:05.206Z,30.70
2018-12-08T03:59:33.778Z,32.00
2018-12-08T04:02:02.392Z,29.03
2018-12-08T04:04:30.986Z,28.73
2018-12-08T04:07:00.508Z,29.10
2018-12-08T04:09:29.068Z,25.43
2018-12-08T04:11:57.657Z,22.30
2018-12-08T04:14:26.281Z,22.77
2018-12-08T04:16:54.856Z,20.93
2018-12-08T04:19:23.437Z,19.30
2018-12-08T04:21:52.104Z,23.80
2018-12-08T04:24:20.738Z,19.53
2018-12-08T04:26:49.318Z,16.63
2018-12-08T04:29:17.889Z,18.47
2018-12-08T04:31:46.487Z,17.97
2018-12-08T04:34:15.065Z,16.03
2018-12-08T04:36:43.672Z,17.70
2018-12-08T04:39:12.243Z,17.57
2018-12-08T04:41:40.855Z,18.03
2018-12-08T04:44:09.428Z,16.30
2018-12-08T04:46:38.024Z,17.23
2018-12-08T04:49:06.621Z,16.80
2018-12-08T04:51:35.221Z,14.97
2018-12-08T04:54:03.808Z,14.17
2018-12-08T04:56:32.406Z,16.00
2018-12-08T04:59:00.972Z,15.33
2018-12-08T05:01:29.552Z,15.37
2018-12-08T05:03:58.152Z,15.10
2018-12-08T05:06:26.737Z,15.50
2018-12-08T05:08:55.315Z,15.60
2018-12-08T05:11:23.912Z,15.50
2018-12-08T05:13:52.761Z,17.07
2018-12-08T05:16:21.353Z,15.53
2018-12-08T05:18:49.951Z,14.97
2018-12-08T05:21:18.531Z,14.27
2018-12-08T05:23:47.100Z,14.70
2018-12-08T05:26:15.683Z,14.80
2018-12-08T05:28:44.262Z,14.70
2018-12-08T05:31:12.852Z,15.10
2018-12-08T05:33:41.428Z,14.80
2018-12-08T05:36:10.001Z,15.63
2018-12-08T05:38:38.567Z,14.57
2018-12-08T05:41:07.161Z,17.03
2018-12-08T05:43:35.764Z,15.78
2018-12-08T05:46:04.399Z,14.90
2018-12-08T05:48:32.997Z,17.17
2018-12-08T05:51:02.485Z,16.87
2018-12-08T05:53:31.096Z,15.77
2018-12-08T05:55:59.673Z,16.47
2018-12-08T05:58:28.694Z,16.43
2018-12-08T06:00:57.356Z,17.20
2018-12-08T06:03:25.929Z,17.43
2018-12-08T06:05:55.096Z,17.37
2018-12-08T06:08:23.684Z,16.40
2018-12-08T06:10:52.259Z,16.17
2018-12-08T06:13:20.855Z,17.50
2018-12-08T06:15:49.421Z,16.10
2018-12-08T06:18:17.993Z,17.80
2018-12-08T06:20:46.603Z,16.60
2018-12-08T06:23:15.160Z,16.07
2018-12-08T06:25:43.732Z,21.87
2018-12-08T06:28:17.825Z,19.57
2018-12-08T06:30:46.453Z,20.43
2018-12-08T06:33:15.148Z,23.97
2018-12-08T06:35:43.754Z,31.47
2018-12-08T06:38:12.333Z,27.30
2018-12-08T06:40:40.915Z,28.35
2018-12-08T06:43:09.473Z,24.33
2018-12-08T06:45:38.417Z,23.93
2018-12-08T06:48:07.068Z,24.43
2018-12-08T06:50:35.671Z,19.97
2018-12-08T06:53:04.389Z,21.73
2018-12-08T06:55:32.988Z,19.23
2018-12-08T06:58:02.080Z,19.10
2018-12-08T07:00:30.651Z,18.70
2018-12-08T07:02:59.268Z,19.70
2018-12-08T07:05:27.845Z,18.97
2018-12-08T07:07:56.416Z,22.70
2018-12-08T07:10:25.018Z,23.30
2018-12-08T07:12:53.593Z,22.48
2018-12-08T07:15:22.192Z,23.60
2018-12-08T07:17:50.781Z,25.17
2018-12-08T07:20:19.404Z,22.97
2018-12-08T07:22:47.972Z,23.90
2018-12-08T07:25:16.528Z,27.07
2018-12-08T07:27:45.116Z,27.07
2018-12-08T07:30:13.817Z,28.50
2018-12-08T07:32:42.527Z,26.27
2018-12-08T07:35:11.117Z,28.47
2018-12-08T07:37:39.704Z,27.07
2018-12-08T07:40:09.329Z,29.02
2018-12-08T07:42:37.929Z,26.70
2018-12-08T07:45:07.468Z,29.30
2018-12-08T07:47:36.081Z,30.17
2018-12-08T07:50:06.594Z,29.63
2018-12-08T07:52:35.185Z,30.50
2018-12-08T07:55:04.452Z,33.07
2018-12-08T07:57:33.058Z,35.65
2018-12-08T08:00:01.745Z,35.43
2018-12-08T08:02:30.274Z,35.50
2018-12-08T08:04:58.880Z,38.23
2018-12-08T08:07:27.476Z,40.95
2018-12-08T08:09:56.049Z,41.70
2018-12-08T08:12:25.024Z,42.35
2018-12-08T08:14:53.617Z,44.20
2018-12-08T08:17:22.286Z,44.97
2018-12-08T08:19:50.871Z,43.90
2018-12-08T08:22:19.436Z,45.77
2018-12-08T08:24:48.050Z,44.42
2018-12-08T08:27:16.625Z,45.93
2018-12-08T08:29:45.197Z,44.37
2018-12-08T08:32:15.575Z,45.17
2018-12-08T08:34:44.146Z,45.80
2018-12-08T08:37:22.646Z,44.30
2018-12-08T08:39:51.281Z,47.13
2018-12-08T08:42:20.217Z,49.13
2018-12-08T08:44:48.798Z,48.40
2018-12-08T08:47:18.248Z,49.43
2018-12-08T08:49:47.416Z,47.97
2018-12-08T08:52:15.988Z,45.37
2018-12-08T08:54:44.583Z,45.67
2018-12-08T08:57:13.265Z,46.63
2018-12-08T08:59:42.060Z,45.48
2018-12-08T09:02:10.706Z,45.23
2018-12-08T09:04:39.377Z,46.17
2018-12-08T09:07:07.965Z,43.28
2018-12-08T09:09:37.153Z,43.23
2018-12-08T09:12:06.053Z,42.50
2018-12-08T09:14:34.976Z,39.90
2018-12-08T09:17:04.445Z,37.53
2018-12-08T09:19:33.065Z,41.17
2018-12-08T09:22:01.627Z,40.50
2018-12-08T09:24:30.217Z,42.77
2018-12-08T09:26:58.816Z,41.67
2018-12-08T09:29:27.401Z,41.47
2018-12-08T09:31:55.951Z,39.07
2018-12-08T09:34:24.553Z,34.30
2018-12-08T09:36:53.198Z,36.00
2018-12-08T09:39:21.784Z,30.07
2018-12-08T09:41:50.672Z,28.67
2018-12-08T09:44:19.256Z,27.30
2018-12-08T09:46:47.840Z,26.40
2018-12-08T09:49:16.436Z,24.53
2018-12-08T09:51:45.028Z,25.30
2018-12-08T09:54:13.622Z,21.70
2018-12-08T09:56:42.228Z,20.83
2018-12-08T09:59:10.813Z,22.93
2018-12-08T10:01:39.448Z,24.13
2018-12-08T10:04:07.989Z,22.80
2018-12-08T10:06:36.633Z,24.40
2018-12-08T10:09:06.427Z,24.57
2018-12-08T10:11:35.006Z,23.67
2018-12-08T10:14:03.728Z,26.90
2018-12-08T10:16:32.981Z,20.50
2018-12-08T10:19:01.556Z,18.10
2018-12-08T10:21:30.124Z,20.17
2018-12-08T10:23:59.158Z,22.87
2018-12-08T10:26:27.727Z,26.13
2018-12-08T10:28:56.330Z,19.80
2018-12-08T10:31:24.924Z,21.87
2018-12-08T10:33:53.511Z,20.20
2018-12-08T10:36:22.085Z,21.47
2018-12-08T10:38:50.680Z,20.67
2018-12-08T10:41:19.298Z,21.57
2018-12-08T10:43:48.075Z,21.87
2018-12-08T10:46:16.673Z,22.73
2018-12-08T10:48:45.264Z,24.30
2018-12-08T10:51:14.585Z,44.10
2018-12-08T10:53:43.163Z,35.00
2018-12-08T10:56:11.778Z,45.23
2018-12-08T10:58:40.356Z,43.00
2018-12-08T11:01:14.388Z,41.00
2018-12-08T11:03:50.736Z,34.90
2018-12-08T11:06:19.589Z,29.30
2018-12-08T11:08:48.240Z,28.10
2018-12-08T11:11:16.856Z,26.17
2018-12-08T11:13:45.435Z,24.30
2018-12-08T11:16:14.039Z,22.30
2018-12-08T11:18:42.622Z,20.23
2018-12-08T11:21:11.193Z,19.20
2018-12-08T11:23:39.845Z,13.93
2018-12-08T11:26:08.448Z,12.77
2018-12-08T11:28:37.026Z,11.73
2018-12-08T11:31:05.638Z,12.93
2018-12-08T11:33:34.252Z,11.30
2018-12-08T11:36:02.840Z,11.50
2018-12-08T11:38:31.445Z,10.27
2018-12-08T11:41:00.039Z,10.07
2018-12-08T11:43:28.596Z,9.30
2018-12-08T11:45:57.198Z,10.27
2018-12-08T11:48:25.762Z,8.57
2018-12-08T11:50:54.476Z,9.10
2018-12-08T11:53:23.188Z,8.20
2018-12-08T11:55:51.745Z,8.67
2018-12-08T11:58:20.341Z,9.37
2018-12-08T12:00:48.929Z,8.50
2018-12-08T12:03:17.666Z,8.27
2018-12-08T12:05:46.249Z,9.73
2018-12-08T12:08:14.813Z,7.30
2018-12-08T12:10:43.413Z,7.50
2018-12-08T12:13:12.451Z,7.40
2018-12-08T12:15:41.017Z,7.93
2018-12-08T12:18:09.594Z,7.50
2018-12-08T12:20:38.209Z,7.60
2018-12-08T12:23:06.778Z,7.03
2018-12-08T12:25:35.500Z,7.10
2018-12-08T12:28:04.451Z,6.70
2018-12-08T12:30:33.148Z,6.30
2018-12-08T12:33:01.731Z,6.00
2018-12-08T12:35:30.317Z,7.00
2018-12-08T12:37:58.884Z,6.57
2018-12-08T12:40:27.460Z,6.30
2018-12-08T12:42:56.036Z,5.87
2018-12-08T12:45:24.612Z,6.00
2018-12-08T12:47:53.176Z,5.73
2018-12-08T12:50:21.767Z,5.70
2018-12-08T12:52:50.318Z,6.00
2018-12-08T12:55:18.870Z,4.53
2018-12-08T12:57:47.485Z,4.90
2018-12-08T13:00:16.060Z,4.10
2018-12-08T13:02:44.620Z,4.00
2018-12-08T13:05:13.217Z,4.20
2018-12-08T13:07:41.780Z,4.37
2018-12-08T13:10:10.356Z,4.80
2018-12-08T13:12:39.094Z,5.80
2018-12-08T13:15:07.728Z,5.27
2018-12-08T13:17:36.307Z,4.10
2018-12-08T13:20:05.218Z,4.13
2018-12-08T13:22:33.793Z,4.10
2018-12-08T13:25:13.566Z,4.43
2018-12-08T13:27:42.148Z,3.80
2018-12-08T13:30:10.745Z,4.10
2018-12-08T13:32:39.312Z,4.17
2018-12-08T13:35:11.725Z,4.13
2018-12-08T13:37:40.284Z,3.77
2018-12-08T13:40:08.876Z,3.37
2018-12-08T13:42:37.448Z,3.83
2018-12-08T13:45:17.394Z,4.00
2018-12-08T13:47:45.980Z,3.63
2018-12-08T13:50:14.600Z,4.03
2018-12-08T13:52:43.177Z,4.20
2018-12-08T13:55:11.761Z,3.73
2018-12-08T13:57:40.329Z,3.50
2018-12-08T14:00:09.804Z,3.90
2018-12-08T14:02:38.376Z,3.67
2018-12-08T14:05:07.672Z,3.53
2018-12-08T14:07:36.237Z,3.40
2018-12-08T14:10:05.668Z,4.10
2018-12-08T14:12:34.269Z,3.63
2018-12-08T14:15:02.880Z,3.50
2018-12-08T14:17:31.456Z,3.40
2018-12-08T14:20:40.245Z,3.40
2018-12-08T14:23:08.805Z,3.63
2018-12-08T14:25:37.464Z,3.77
2018-12-08T14:28:06.696Z,3.13
2018-12-08T14:30:35.368Z,3.37
2018-12-08T14:33:03.941Z,3.33
2018-12-08T14:35:32.541Z,2.83
2018-12-08T14:38:01.116Z,2.97
2018-12-08T14:40:29.716Z,2.87
2018-12-08T14:42:58.341Z,3.23
2018-12-08T14:45:26.908Z,3.00
2018-12-08T14:47:55.493Z,3.70
2018-12-08T14:50:24.078Z,2.13
2018-12-08T14:52:52.677Z,2.80
2018-12-08T14:55:21.252Z,3.00
2018-12-08T14:57:49.821Z,3.30
2018-12-08T15:00:18.422Z,2.80
2018-12-08T15:02:47.004Z,3.90
2018-12-08T15:05:15.580Z,2.97
2018-12-08T15:07:44.196Z,3.50
2018-12-08T15:10:13.337Z,3.37
2018-12-08T15:12:41.941Z,3.20
2018-12-08T15:15:10.988Z,3.20
2018-12-08T15:17:39.555Z,3.03
2018-12-08T15:20:09.498Z,3.67
2018-12-08T15:22:38.240Z,3.90
2018-12-08T15:25:08.945Z,3.90
2018-12-08T15:27:38.024Z,2.80
2018-12-08T15:30:08.376Z,3.07
2018-12-08T15:32:36.976Z,3.80
2018-12-08T15:35:08.020Z,4.00
2018-12-08T15:37:36.600Z,3.50
2018-12-08T15:40:06.373Z,4.77
2018-12-08T15:42:34.931Z,3.73
2018-12-08T15:45:03.840Z,3.13
2018-12-08T15:47:32.404Z,4.60
2018-12-08T15:50:00.984Z,5.10
2018-12-08T15:52:29.608Z,5.97
2018-12-08T15:54:58.232Z,5.60
2018-12-08T15:57:26.789Z,4.53
2018-12-08T15:59:55.393Z,4.37
2018-12-08T16:02:24.209Z,4.73
2018-12-08T16:04:52.960Z,5.93
2018-12-08T16:07:21.542Z,5.60
2018-12-08T16:09:50.109Z,5.87
2018-12-08T16:12:18.717Z,5.93
2018-12-08T16:14:47.294Z,5.33
2018-12-08T16:17:15.888Z,5.50
2018-12-08T16:19:44.471Z,4.70
2018-12-08T16:22:13.028Z,4.93
2018-12-08T16:24:41.608Z,6.67
2018-12-08T16:27:10.266Z,5.43
2018-12-08T16:29:38.829Z,6.17
2018-12-08T16:32:07.437Z,6.07
2018-12-08T16:34:36.353Z,6.00
2018-12-08T16:37:11.640Z,5.40
2018-12-08T16:39:40.254Z,5.80
2018-12-08T16:42:08.847Z,5.60
2018-12-08T16:44:37.418Z,5.20
2018-12-08T16:47:06.009Z,5.30
2018-12-08T16:49:34.582Z,4.87
2018-12-08T16:52:03.197Z,5.67
2018-12-08T16:54:31.751Z,6.50
2018-12-08T16:57:00.377Z,5.03
2018-12-08T16:59:28.956Z,5.37
2018-12-08T17:01:57.535Z,5.37
2018-12-08T17:04:26.136Z,4.47
2018-12-08T17:06:54.716Z,4.27
2018-12-08T17:09:23.276Z,5.07
2018-12-08T17:11:52.869Z,4.30
2018-12-08T17:14:21.420Z,3.93
2018-12-08T17:16:49.993Z,4.67
2018-12-08T17:19:18.623Z,4.30
2018-12-08T17:21:47.213Z,4.67
2018-12-08T17:24:15.792Z,5.30
2018-12-08T17:26:44.400Z,4.70
2018-12-08T17:29:13.003Z,4.47
2018-12-08T17:31:41.701Z,4.70
2018-12-08T17:34:10.505Z,4.30
2018-12-08T17:36:39.089Z,4.77
2018-12-08T17:39:08.196Z,4.07
2018-12-08T17:41:36.809Z,4.60
2018-12-08T17:44:05.429Z,3.93
2018-12-08T17:46:34.008Z,4.30
2018-12-08T17:49:02.702Z,4.43
2018-12-08T17:51:31.307Z,4.03
2018-12-08T17:54:02.640Z,4.33
2018-12-08T17:56:31.460Z,4.90
2018-12-08T17:59:00.057Z,4.30
2018-12-08T18:01:28.798Z,4.77
2018-12-08T18:03:57.373Z,4.40
2018-12-08T18:06:26.109Z,4.97
2018-12-08T18:08:54.721Z,4.80
2018-12-08T18:11:23.296Z,4.03
2018-12-08T18:13:51.832Z,4.80
2018-12-08T18:16:20.460Z,4.10
2018-12-08T18:18:49.022Z,4.50
2018-12-08T18:21:17.728Z,4.30
2018-12-08T18:23:46.403Z,4.20
2018-12-08T18:26:15.096Z,5.20
2018-12-08T18:28:43.627Z,4.60
2018-12-08T18:31:12.259Z,3.83
2018-12-08T18:33:40.832Z,3.63
2018-12-08T18:36:09.410Z,4.23
2018-12-08T18:38:38.076Z,4.13
2018-12-08T18:41:06.712Z,4.27
2018-12-08T18:43:35.297Z,3.63
2018-12-08T18:46:04.158Z,3.27
2018-12-08T18:48:32.740Z,3.90
2018-12-08T18:51:01.344Z,3.70
2018-12-08T18:53:29.929Z,4.33
2018-12-08T18:55:58.532Z,3.27
2018-12-08T18:58:27.129Z,3.60
2018-12-08T19:00:55.711Z,4.37
2018-12-08T19:03:24.303Z,4.00
2018-12-08T19:05:52.864Z,3.77
2018-12-08T19:08:21.452Z,4.27
2018-12-08T19:10:50.088Z,3.30
2018-12-08T19:13:19.484Z,3.53
2018-12-08T19:15:48.044Z,3.23
2018-12-08T19:18:16.629Z,3.40
2018-12-08T19:20:45.537Z,3.30
2018-12-08T19:23:14.505Z,3.80
2018-12-08T19:25:43.508Z,3.63
2018-12-08T19:28:12.075Z,3.43
2018-12-08T19:30:40.648Z,3.50
2018-12-08T19:33:14.481Z,3.37
2018-12-08T19:35:39.840Z,2.80
2018-12-08T19:38:08.392Z,3.20
2018-12-08T19:40:37.025Z,3.37
2018-12-08T19:43:05.604Z,3.10
2018-12-08T19:45:34.203Z,3.43
2018-12-08T19:48:02.756Z,3.27
2018-12-08T19:50:31.371Z,3.40
2018-12-08T19:53:00.048Z,2.60
2018-12-08T19:55:28.640Z,3.37
2018-12-08T19:57:57.213Z,2.90
2018-12-08T20:00:25.796Z,4.30
2018-12-08T20:02:54.424Z,3.43
2018-12-08T20:05:23.149Z,3.60
2018-12-08T20:07:51.713Z,3.80
2018-12-08T20:10:20.312Z,3.50
2018-12-08T20:12:48.887Z,3.63
2018-12-08T20:15:17.592Z,3.50
2018-12-08T20:17:46.192Z,3.23
2018-12-08T20:20:14.768Z,3.20
2018-12-08T20:22:43.354Z,3.17
2018-12-08T20:25:11.936Z,3.47
2018-12-08T20:27:40.529Z,3.10
2018-12-08T20:30:10.060Z,3.20
2018-12-08T20:32:38.634Z,3.00
2018-12-08T20:35:07.473Z,3.83
2018-12-08T20:37:36.056Z,3.53
2018-12-08T20:40:05.807Z,3.03
2018-12-08T20:42:35.216Z,3.17
2018-12-08T20:45:05.937Z,3.50
2018-12-08T20:47:34.544Z,4.50
2018-12-08T20:50:03.243Z,3.93
2018-12-08T20:52:31.841Z,4.27
2018-12-08T20:55:00.416Z,3.40
2018-12-08T20:57:29.000Z,3.20
2018-12-08T20:59:57.588Z,2.97
2018-12-08T21:02:26.160Z,3.53
2018-12-08T21:04:54.741Z,3.57
2018-12-08T21:07:23.317Z,2.97
2018-12-08T21:09:51.852Z,3.40
2018-12-08T21:12:20.583Z,3.43
2018-12-08T21:14:49.177Z,3.07
2018-12-08T21:17:17.793Z,3.33
2018-12-08T21:19:46.422Z,3.40
2018-12-08T21:22:15.032Z,3.20
2018-12-08T21:24:43.683Z,3.47
2018-12-08T21:27:12.285Z,3.43
2018-12-08T21:29:40.849Z,3.77
2018-12-08T21:32:10.974Z,3.90
2018-12-08T21:34:40.605Z,3.10
2018-12-08T21:37:09.170Z,3.90
2018-12-08T21:39:37.742Z,3.20
2018-12-08T21:42:06.333Z,3.20
2018-12-08T21:44:34.897Z,3.13
2018-12-08T21:47:03.472Z,4.47
2018-12-08T21:49:32.049Z,3.57
2018-12-08T21:52:00.614Z,3.30
2018-12-08T21:54:29.201Z,3.20
2018-12-08T21:56:57.833Z,2.80
2018-12-08T21:59:26.421Z,3.23
2018-12-08T22:01:55.389Z,3.17
2018-12-08T22:04:23.978Z,3.37
2018-12-08T22:06:52.565Z,3.10
2018-12-08T22:09:21.148Z,3.30
2018-12-08T22:11:49.756Z,3.37
2018-12-08T22:14:18.318Z,3.10
2018-12-08T22:16:47.227Z,3.00
2018-12-08T22:19:15.804Z,3.43
2018-12-08T22:21:44.407Z,3.27
2018-12-08T22:24:12.973Z,2.90
2018-12-08T22:26:41.556Z,2.90
2018-12-08T22:29:10.119Z,3.50
2018-12-08T22:31:38.693Z,3.53
2018-12-08T22:34:07.287Z,3.40
2018-12-08T22:36:35.845Z,3.50
2018-12-08T22:39:06.904Z,3.13
2018-12-08T22:41:35.899Z,2.83
2018-12-08T22:44:04.482Z,3.13
2018-12-08T22:46:33.080Z,3.00
2018-12-08T22:49:01.805Z,2.57
2018-12-08T22:51:30.376Z,2.90
2018-12-08T22:53:58.961Z,4.40
2018-12-08T22:56:27.557Z,3.43
2018-12-08T22:58:56.117Z,2.67
2018-12-08T23:01:24.984Z,3.27
2018-12-08T23:03:53.561Z,2.80
2018-12-08T23:06:22.169Z,3.10
2018-12-08T23:08:50.769Z,3.00
2018-12-08T23:11:20.573Z,2.97
2018-12-08T23:13:49.432Z,3.23
2018-12-08T23:16:18.048Z,2.80
2018-12-08T23:18:46.632Z,2.87
2018-12-08T23:21:15.201Z,3.03
2018-12-08T23:23:43.781Z,2.33
2018-12-08T23:26:12.353Z,2.20
2018-12-08T23:28:40.952Z,3.23
2018-12-08T23:31:09.553Z,2.40
2018-12-08T23:33:38.073Z,2.53
2018-12-08T23:36:06.742Z,2.33
2018-12-08T23:38:35.309Z,2.70
2018-12-08T23:41:03.877Z,2.60
2018-12-08T23:43:32.462Z,2.57
2018-12-08T23:46:01.032Z,2.97
2018-12-08T23:48:29.633Z,2.40
2018-12-08T23:50:58.580Z,3.13
2018-12-08T23:53:27.404Z,2.40
2018-12-08T23:55:56.299Z,2.87
2018-12-08T23:58:25.123Z,2.53
